Time;durP1;ratioP1;P1;durP2;ratioP2;P2;SDS_P1;SDS_P2;PMS_P1;PMS_P2;Temp;Humidity;BMP_temperature;BMP_pressure;BME280_temperature;BME280_humidity;BME280_pressure;Samples;Min_cycle;Max_cycle;Signal;HPM_P1;HPM_P2
2023/01/23 00:01:24;;;;;;;21.00;11.48;;;;;;;;;;5015964;28;20083;-70
2023/01/23 00:03:50;;;;;;;21.77;10.85;;;;;;;;;;5027199;28;20037;-70
2023/01/23 00:06:16;;;;;;;21.17;11.20;;;;;;;;;;5055401;28;20084;-70
2023/01/23 00:08:44;;;;;;;23.92;12.27;;;;;;;;;;5049687;28;20042;-70
2023/01/23 00:11:21;;;;;;;18.85;10.80;;;;;;;;;;5029140;28;20420;-70
2023/01/23 00:13:46;;;;;;;20.80;10.88;;;;;;;;;;5024182;28;20021;-70
2023/01/23 00:16:18;;;;;;;20.20;11.18;;;;;;;;;;5015330;28;20022;-70
2023/01/23 00:18:45;;;;;;;19.00;10.65;;;;;;;;;;5015658;28;20022;-70
2023/01/23 00:21:14;;;;;;;20.85;11.32;;;;;;;;;;5015505;28;20149;-70
2023/01/23 00:23:45;;;;;;;18.05;10.93;;;;;;;;;;5015400;28;20026;-70
2023/01/23 00:26:11;;;;;;;;;;;;;;;;;;5015766;28;20037;-71
2023/01/23 00:28:37;;;;;;;20.92;11.07;;;;;;;;;;5015206;28;19913;-70
2023/01/23 00:31:08;;;;;;;18.98;11.85;;;;;;;;;;5015303;28;20025;-70
2023/01/23 00:33:33;;;;;;;20.00;11.02;;;;;;;;;;5015221;28;20493;-70
2023/01/23 00:35:59;;;;;;;18.05;9.75;;;;;;;;;;5015172;28;20030;-70
2023/01/23 00:38:25;;;;;;;18.52;11.05;;;;;;;;;;5015053;28;20033;-70
2023/01/23 00:40:50;;;;;;;20.60;11.50;;;;;;;;;;5015137;28;20426;-70
2023/01/23 00:43:16;;;;;;;19.15;10.40;;;;;;;;;;5022941;28;20049;-70
2023/01/23 00:45:42;;;;;;;18.98;11.27;;;;;;;;;;5023228;28;20034;-70
2023/01/23 00:48:07;;;;;;;23.67;12.05;;;;;;;;;;5024586;28;20029;-70
2023/01/23 00:50:32;;;;;;;19.52;10.73;;;;;;;;;;5022497;28;20359;-70
2023/01/23 00:52:58;;;;;;;22.48;11.13;;;;;;;;;;5023662;28;20363;-71
2023/01/23 00:55:23;;;;;;;20.85;10.45;;;;;;;;;;5023926;28;20054;-70
2023/01/23 00:57:49;;;;;;;22.95;11.32;;;;;;;;;;5022018;28;20026;-70
2023/01/23 01:00:15;;;;;;;20.83;11.63;;;;;;;;;;5022908;28;20022;-70
2023/01/23 01:02:41;;;;;;;17.25;9.95;;;;;;;;;;5022937;28;20037;-70
2023/01/23 01:05:06;;;;;;;20.77;11.35;;;;;;;;;;5022206;28;20041;-70
2023/01/23 01:07:32;;;;;;;20.60;11.50;;;;;;;;;;5024051;28;20033;-70
2023/01/23 01:09:57;;;;;;;23.33;10.98;;;;;;;;;;5021839;28;20025;-70
2023/01/23 01:12:23;;;;;;;19.70;10.75;;;;;;;;;;5022546;28;20029;-70
2023/01/23 01:14:48;;;;;;;17.83;9.77;;;;;;;;;;5023997;28;20409;-70
2023/01/23 01:17:13;;;;;;;19.08;10.18;;;;;;;;;;5030931;28;20116;-70
2023/01/23 01:19:39;;;;;;;21.10;10.73;;;;;;;;;;5034128;28;20104;-70
2023/01/23 01:22:04;;;;;;;16.60;9.10;;;;;;;;;;5034151;28;20028;-71
2023/01/23 01:24:30;;;;;;;17.98;9.60;;;;;;;;;;5034209;28;20381;-71
2023/01/23 01:26:55;;;;;;;17.40;10.70;;;;;;;;;;5033714;28;20416;-70
2023/01/23 01:29:20;;;;;;;16.45;9.77;;;;;;;;;;5049476;28;20032;-71
2023/01/23 01:31:46;;;;;;;15.80;9.35;;;;;;;;;;5033863;28;20025;-71
2023/01/23 01:34:12;;;;;;;16.35;10.32;;;;;;;;;;5033967;28;20033;-70
2023/01/23 01:36:38;;;;;;;17.00;10.05;;;;;;;;;;5033871;28;20039;-71
2023/01/23 01:39:03;;;;;;;19.50;10.45;;;;;;;;;;5033772;28;20033;-70
2023/01/23 01:41:29;;;;;;;17.15;9.43;;;;;;;;;;5033558;28;20444;-71
2023/01/23 01:43:56;;;;;;;18.92;8.98;;;;;;;;;;5033684;28;20029;-70
2023/01/23 01:46:23;;;;;;;16.10;9.88;;;;;;;;;;5033341;28;20033;-69
2023/01/23 01:48:48;;;;;;;16.00;9.48;;;;;;;;;;5033687;28;20026;-69
2023/01/23 01:51:26;;;;;;;18.73;10.82;;;;;;;;;;5033649;28;20022;-70
2023/01/23 01:53:59;;;;;;;12.98;7.65;;;;;;;;;;5033589;28;20489;-70
2023/01/23 01:56:27;;;;;;;16.20;9.27;;;;;;;;;;5033255;28;20022;-69
2023/01/23 01:58:53;;;;;;;17.58;9.75;;;;;;;;;;5033510;28;20026;-69
2023/01/23 02:01:19;;;;;;;19.10;10.10;;;;;;;;;;5033435;28;20462;-69
2023/01/23 02:03:45;;;;;;;18.50;10.00;;;;;;;;;;5032978;28;20045;-69
2023/01/23 02:06:11;;;;;;;15.52;9.18;;;;;;;;;;5033245;28;20362;-68
2023/01/23 02:08:56;;;;;;;17.02;9.10;;;;;;;;;;5033357;28;20159;-67
2023/01/23 02:11:22;;;;;;;15.82;9.50;;;;;;;;;;5033069;28;20033;-68
2023/01/23 02:13:48;;;;;;;15.30;9.20;;;;;;;;;;5033158;28;20493;-68
2023/01/23 02:16:28;;;;;;;16.60;10.10;;;;;;;;;;5033194;28;20029;-69
2023/01/23 02:18:58;;;;;;;17.80;9.55;;;;;;;;;;5032589;28;20040;-68
2023/01/23 02:21:24;;;;;;;15.68;9.52;;;;;;;;;;5033022;28;20030;-69
2023/01/23 02:24:01;;;;;;;17.98;8.98;;;;;;;;;;5033001;28;20029;-69
2023/01/23 02:26:40;;;;;;;17.23;9.85;;;;;;;;;;5014877;28;20034;-67
2023/01/23 02:29:05;;;;;;;18.98;9.80;;;;;;;;;;5032947;28;20248;-67
2023/01/23 02:31:31;;;;;;;17.60;9.88;;;;;;;;;;5032905;28;20536;-67
2023/01/23 02:33:58;;;;;;;15.02;9.20;;;;;;;;;;5032815;28;20120;-67
2023/01/23 02:36:30;;;;;;;15.95;9.43;;;;;;;;;;5032781;28;20029;-67
2023/01/23 02:39:03;;;;;;;14.68;9.00;;;;;;;;;;5032829;28;20075;-67
2023/01/23 02:41:35;;;;;;;18.98;9.68;;;;;;;;;;5032756;28;20520;-67
2023/01/23 02:44:34;;;;;;;18.33;10.00;;;;;;;;;;5032649;28;20152;-67
2023/01/23 02:47:06;;;;;;;14.88;8.90;;;;;;;;;;5028782;28;20052;-67
2023/01/23 02:49:32;;;;;;;18.48;9.98;;;;;;;;;;5032663;28;20034;-68
2023/01/23 02:51:58;;;;;;;15.80;9.07;;;;;;;;;;5032709;28;20489;-68
2023/01/23 02:54:24;;;;;;;14.68;7.93;;;;;;;;;;5032380;28;20101;-68
2023/01/23 02:56:50;;;;;;;14.02;8.65;;;;;;;;;;5032543;28;20473;-67
2023/01/23 03:01:59;;;;;;;17.80;9.45;;;;;;;;;;5032623;28;20037;-68
2023/01/23 03:04:25;;;;;;;14.32;8.57;;;;;;;;;;5032165;28;20049;-69
2023/01/23 03:06:51;;;;;;;16.20;8.70;;;;;;;;;;5032407;28;20030;-69
2023/01/23 03:09:17;;;;;;;12.63;7.75;;;;;;;;;;5032287;28;20386;-68
2023/01/23 03:11:44;;;;;;;14.55;8.80;;;;;;;;;;5032369;28;20022;-68
2023/01/23 03:14:16;;;;;;;16.23;8.70;;;;;;;;;;5032423;28;20029;-69
2023/01/23 03:16:42;;;;;;;14.73;9.05;;;;;;;;;;5032481;28;20029;-68
2023/01/23 03:19:08;;;;;;;16.02;8.43;;;;;;;;;;5032280;28;20021;-69
2023/01/23 03:21:36;;;;;;;20.75;9.40;;;;;;;;;;5032262;28;20033;-68
2023/01/23 03:24:03;;;;;;;17.35;8.57;;;;;;;;;;5032098;28;20469;-69
2023/01/23 03:26:29;;;;;;;17.98;9.85;;;;;;;;;;5032152;28;20064;-69
2023/01/23 03:31:39;;;;;;;15.05;9.13;;;;;;;;;;5032327;28;20036;-68
2023/01/23 03:34:05;;;;;;;14.10;8.85;;;;;;;;;;5036015;28;20109;-69
2023/01/23 03:36:31;;;;;;;15.93;9.35;;;;;;;;;;5036073;28;20033;-69
2023/01/23 03:41:40;;;;;;;20.27;9.13;;;;;;;;;;5036023;28;20113;-69
2023/01/23 03:44:08;;;;;;;14.25;8.68;;;;;;;;;;5035877;28;20112;-68
2023/01/23 03:46:34;;;;;;;14.88;8.57;;;;;;;;;;5035708;28;20087;-69
2023/01/23 03:48:59;;;;;;;13.77;8.13;;;;;;;;;;5035807;28;20501;-68
2023/01/23 03:51:25;;;;;;;16.63;8.77;;;;;;;;;;5035861;28;20068;-69
2023/01/23 03:53:50;;;;;;;14.02;8.35;;;;;;;;;;5035570;28;20021;-69
2023/01/23 03:56:15;;;;;;;14.52;8.23;;;;;;;;;;5035704;28;20029;-70
2023/01/23 03:58:41;;;;;;;18.13;9.05;;;;;;;;;;5035522;28;20026;-70
2023/01/23 04:01:08;;;;;;;25.35;14.05;;;;;;;;;;5035702;28;20462;-69
2023/01/23 04:03:34;;;;;;;14.75;8.77;;;;;;;;;;5035330;28;20053;-69
2023/01/23 04:06:00;;;;;;;13.30;8.20;;;;;;;;;;5035550;28;20029;-69
2023/01/23 04:08:25;;;;;;;13.45;8.68;;;;;;;;;;5035258;28;20033;-70
2023/01/23 04:10:59;;;;;;;14.93;8.30;;;;;;;;;;5035448;28;20100;-70
2023/01/23 04:13:24;;;;;;;12.93;8.07;;;;;;;;;;5035563;28;20466;-68
2023/01/23 04:15:49;;;;;;;12.88;7.63;;;;;;;;;;5035411;28;20044;-69
2023/01/23 04:18:15;;;;;;;13.30;8.50;;;;;;;;;;5035056;28;20033;-69
2023/01/23 04:20:40;;;;;;;12.52;8.30;;;;;;;;;;5034932;28;20021;-69
2023/01/23 04:23:06;;;;;;;16.58;9.38;;;;;;;;;;5035521;28;20559;-69
2023/01/23 04:25:31;;;;;;;15.68;8.40;;;;;;;;;;5035104;28;20060;-69
2023/01/23 04:27:56;;;;;;;15.07;8.80;;;;;;;;;;5035169;28;20025;-69
2023/01/23 04:30:22;;;;;;;15.85;8.23;;;;;;;;;;5035065;28;20017;-70
2023/01/23 04:32:47;;;;;;;14.25;8.18;;;;;;;;;;5035121;28;20044;-69
2023/01/23 04:35:13;;;;;;;15.77;8.85;;;;;;;;;;5034787;28;20021;-70
2023/01/23 04:37:38;;;;;;;17.20;8.57;;;;;;;;;;5034976;28;20477;-69
2023/01/23 04:40:04;;;;;;;15.68;8.73;;;;;;;;;;5034949;28;20378;-69
2023/01/23 04:42:29;;;;;;;14.75;8.88;;;;;;;;;;5034758;28;20037;-69
2023/01/23 04:44:55;;;;;;;14.60;8.02;;;;;;;;;;5033579;28;20025;-70
2023/01/23 04:47:20;;;;;;;13.27;8.20;;;;;;;;;;5034711;28;20068;-70
2023/01/23 04:49:46;;;;;;;13.82;8.27;;;;;;;;;;5034520;28;20571;-70
2023/01/23 04:52:11;;;;;;;13.07;7.97;;;;;;;;;;5034715;28;20029;-69
2023/01/23 04:54:36;;;;;;;15.55;8.57;;;;;;;;;;5034611;28;20021;-70
2023/01/23 04:57:02;;;;;;;14.55;8.60;;;;;;;;;;5034592;28;20497;-70
2023/01/23 04:59:27;;;;;;;13.25;8.65;;;;;;;;;;5034577;28;20484;-69
2023/01/23 05:01:53;;;;;;;16.70;9.32;;;;;;;;;;5034529;28;20048;-69
2023/01/23 05:04:18;;;;;;;14.18;8.65;;;;;;;;;;5033812;28;20115;-69
2023/01/23 05:06:44;;;;;;;15.18;8.20;;;;;;;;;;5034342;28;20039;-69
2023/01/23 05:09:09;;;;;;;16.48;9.07;;;;;;;;;;5034410;28;20033;-69
2023/01/23 05:11:34;;;;;;;15.18;8.10;;;;;;;;;;5034113;28;20018;-69
2023/01/23 05:14:00;;;;;;;16.63;9.13;;;;;;;;;;5034306;28;20470;-68
2023/01/23 05:16:25;;;;;;;14.27;8.15;;;;;;;;;;5034208;28;20063;-70
2023/01/23 05:18:51;;;;;;;15.82;8.05;;;;;;;;;;5033795;28;20029;-67
2023/01/23 05:21:16;;;;;;;15.48;8.05;;;;;;;;;;5034016;28;20029;-69
2023/01/23 05:23:41;;;;;;;13.15;7.90;;;;;;;;;;5033996;28;20374;-69
2023/01/23 05:26:07;;;;;;;17.65;8.48;;;;;;;;;;5033998;28;20029;-69
2023/01/23 05:28:32;;;;;;;13.75;7.88;;;;;;;;;;5033814;28;20036;-69
2023/01/23 05:30:58;;;;;;;17.20;8.73;;;;;;;;;;5034230;28;20022;-69
2023/01/23 05:33:23;;;;;;;19.05;9.88;;;;;;;;;;5033710;28;20029;-69
2023/01/23 05:35:48;;;;;;;16.80;8.63;;;;;;;;;;5033919;28;20026;-68
2023/01/23 05:38:14;;;;;;;16.33;8.32;;;;;;;;;;5033776;28;20029;-68
2023/01/23 05:40:39;;;;;;;15.13;8.52;;;;;;;;;;5033527;28;20099;-68
2023/01/23 05:43:05;;;;;;;13.43;7.53;;;;;;;;;;5033722;28;20505;-69
2023/01/23 05:45:31;;;;;;;16.63;8.57;;;;;;;;;;5033515;28;20037;-68
2023/01/23 05:47:56;;;;;;;16.77;9.50;;;;;;;;;;5033290;28;20075;-68
2023/01/23 05:50:23;;;;;;;30.77;15.20;;;;;;;;;;5033482;28;20021;-69
2023/01/23 05:52:49;;;;;;;49.35;22.27;;;;;;;;;;5033528;28;20018;-68
2023/01/23 05:55:14;;;;;;;43.08;19.40;;;;;;;;;;5033075;28;20087;-68
2023/01/23 05:57:40;;;;;;;41.25;21.13;;;;;;;;;;5033353;28;20017;-68
2023/01/23 06:00:08;;;;;;;21.77;11.48;;;;;;;;;;5015715;28;20030;-69
2023/01/23 06:02:34;;;;;;;22.33;11.95;;;;;;;;;;5033117;28;20029;-69
2023/01/23 06:04:59;;;;;;;17.60;9.02;;;;;;;;;;5015136;28;20076;-68
2023/01/23 06:07:24;;;;;;;21.67;11.63;;;;;;;;;;5033254;28;20026;-68
2023/01/23 06:09:50;;;;;;;19.35;9.82;;;;;;;;;;5033064;28;20466;-67
2023/01/23 06:12:15;;;;;;;14.10;9.00;;;;;;;;;;5033167;28;20029;-68
2023/01/23 06:14:41;;;;;;;15.25;8.77;;;;;;;;;;5033060;28;20484;-69
2023/01/23 06:17:07;;;;;;;19.15;9.38;;;;;;;;;;5032795;28;20029;-68
2023/01/23 06:19:32;;;;;;;14.63;8.68;;;;;;;;;;5033043;28;20033;-69
2023/01/23 06:21:58;;;;;;;18.02;9.32;;;;;;;;;;5032874;28;20351;-69
2023/01/23 06:24:23;;;;;;;18.67;8.77;;;;;;;;;;5032828;28;20026;-68
2023/01/23 06:26:49;;;;;;;19.83;9.95;;;;;;;;;;5032782;28;20501;-67
2023/01/23 06:29:15;;;;;;;24.27;11.10;;;;;;;;;;5032832;28;20032;-69
2023/01/23 06:31:40;;;;;;;36.40;12.27;;;;;;;;;;5032488;28;20057;-68
2023/01/23 06:34:06;;;;;;;30.17;11.25;;;;;;;;;;5032833;28;20030;-68
2023/01/23 06:36:32;;;;;;;19.35;10.32;;;;;;;;;;5032866;28;20037;-68
2023/01/23 06:38:58;;;;;;;17.27;9.20;;;;;;;;;;5032559;28;20508;-68
2023/01/23 06:41:24;;;;;;;19.15;9.55;;;;;;;;;;5032797;28;20049;-69
2023/01/23 06:43:49;;;;;;;20.88;10.32;;;;;;;;;;5032570;28;20423;-69
2023/01/23 06:46:14;;;;;;;15.27;9.02;;;;;;;;;;5032481;28;20030;-69
2023/01/23 06:48:40;;;;;;;11.52;6.22;;;;;;;;;;5032581;28;20053;-69
2023/01/23 06:51:06;;;;;;;20.63;10.35;;;;;;;;;;5032544;28;20017;-71
2023/01/23 06:53:31;;;;;;;19.95;10.00;;;;;;;;;;5032610;28;20026;-69
2023/01/23 06:56:02;;;;;;;22.50;10.18;;;;;;;;;;5032542;28;20119;-69
2023/01/23 06:58:27;;;;;;;24.48;10.77;;;;;;;;;;5014775;28;20021;-70
2023/01/23 07:00:54;;;;;;;25.90;12.07;;;;;;;;;;5032111;28;20104;-70
2023/01/23 07:03:19;;;;;;;21.13;10.55;;;;;;;;;;5032128;28;20534;-69
2023/01/23 07:05:45;;;;;;;17.85;10.13;;;;;;;;;;5032391;28;20109;-70
2023/01/23 07:08:10;;;;;;;24.77;11.07;;;;;;;;;;5034877;28;20056;-70
2023/01/23 07:10:39;;;;;;;24.55;11.02;;;;;;;;;;5036180;28;20040;-70
2023/01/23 07:13:06;;;;;;;19.80;10.00;;;;;;;;;;5036548;28;20033;-71
2023/01/23 07:15:32;;;;;;;17.15;8.50;;;;;;;;;;5036167;28;20484;-71
2023/01/23 07:17:59;;;;;;;19.60;9.98;;;;;;;;;;5036134;28;20026;-69
2023/01/23 07:20:27;;;;;;;18.05;8.75;;;;;;;;;;5036517;28;20037;-70
2023/01/23 07:22:53;;;;;;;15.60;9.77;;;;;;;;;;5036203;28;20052;-70
2023/01/23 07:25:19;;;;;;;18.92;9.75;;;;;;;;;;5036314;28;20084;-70
2023/01/23 07:27:44;;;;;;;19.70;9.80;;;;;;;;;;5036313;28;20029;-70
2023/01/23 07:30:10;;;;;;;19.17;9.98;;;;;;;;;;5035890;28;20025;-70
2023/01/23 07:32:35;;;;;;;20.10;9.38;;;;;;;;;;5036250;28;20044;-69
2023/01/23 07:35:01;;;;;;;18.85;9.88;;;;;;;;;;5036142;28;20025;-70
2023/01/23 07:37:26;;;;;;;15.75;9.52;;;;;;;;;;5018456;28;20033;-70
2023/01/23 07:39:52;;;;;;;18.08;9.10;;;;;;;;;;5036088;28;20034;-69
2023/01/23 07:42:17;;;;;;;18.17;9.82;;;;;;;;;;5036125;28;20032;-69
2023/01/23 07:44:43;;;;;;;19.90;9.75;;;;;;;;;;5035748;28;20389;-69
2023/01/23 07:47:09;;;;;;;17.75;10.88;;;;;;;;;;5035749;28;20030;-69
2023/01/23 07:49:34;;;;;;;22.08;11.68;;;;;;;;;;5035825;28;20057;-68
2023/01/23 07:51:59;;;;;;;22.23;10.77;;;;;;;;;;5035818;28;20028;-70
2023/01/23 07:54:25;;;;;;;17.35;9.20;;;;;;;;;;5035698;28;20025;-69
2023/01/23 07:56:50;;;;;;;25.40;12.32;;;;;;;;;;5018096;28;20496;-69
2023/01/23 07:59:16;;;;;;;20.55;10.65;;;;;;;;;;5035471;28;20108;-69
2023/01/23 08:01:41;;;;;;;22.90;11.77;;;;;;;;;;5035504;28;20405;-69
2023/01/23 08:04:07;;;;;;;14.02;7.90;;;;;;;;;;5035345;28;20117;-69
2023/01/23 08:06:33;;;;;;;19.92;10.30;;;;;;;;;;5035410;28;20119;-69
2023/01/23 08:08:58;;;;;;;18.05;10.50;;;;;;;;;;5035393;28;20033;-69
2023/01/23 08:11:25;;;;;;;17.38;10.00;;;;;;;;;;5035553;28;20557;-68
2023/01/23 08:13:51;;;;;;;18.77;10.13;;;;;;;;;;5035234;28;20112;-70
2023/01/23 08:16:17;;;;;;;20.02;10.27;;;;;;;;;;5035458;28;20099;-70
2023/01/23 08:18:42;;;;;;;20.90;10.82;;;;;;;;;;5034494;28;20053;-69
2023/01/23 08:21:09;;;;;;;18.15;10.40;;;;;;;;;;5030542;28;20113;-69
2023/01/23 08:23:35;;;;;;;16.92;9.63;;;;;;;;;;5035282;28;20048;-70
2023/01/23 08:26:03;;;;;;;14.52;9.68;;;;;;;;;;5035059;28;20030;-70
2023/01/23 08:28:29;;;;;;;15.88;9.18;;;;;;;;;;5035047;28;20108;-70
2023/01/23 08:30:54;;;;;;;15.20;9.50;;;;;;;;;;5031607;28;20125;-68
2023/01/23 08:33:21;;;;;;;17.30;10.10;;;;;;;;;;5034823;28;20072;-70
2023/01/23 08:35:55;;;;;;;28.83;12.02;;;;;;;;;;5035045;28;20444;-69
2023/01/23 08:38:22;;;;;;;21.77;10.77;;;;;;;;;;5035028;28;20053;-69
2023/01/23 08:40:50;;;;;;;20.98;11.63;;;;;;;;;;5035155;28;20041;-70
2023/01/23 08:43:16;;;;;;;17.77;9.70;;;;;;;;;;5024427;28;20034;-71
2023/01/23 08:45:51;;;;;;;19.73;10.88;;;;;;;;;;5019487;28;20034;-69
2023/01/23 08:48:17;;;;;;;19.02;10.32;;;;;;;;;;5015091;28;20034;-70
2023/01/23 08:50:43;;;;;;;18.65;11.13;;;;;;;;;;5035113;28;20029;-70
2023/01/23 08:53:08;;;;;;;20.08;9.90;;;;;;;;;;5054560;28;20025;-69
2023/01/23 08:55:36;;;;;;;31.42;12.93;;;;;;;;;;5054562;28;20059;-69
2023/01/23 08:58:01;;;;;;;28.48;12.85;;;;;;;;;;5054505;28;20174;-71
2023/01/23 09:00:28;;;;;;;18.42;10.52;;;;;;;;;;5037293;28;20506;-70
2023/01/23 09:02:53;;;;;;;19.40;10.45;;;;;;;;;;5034455;28;20389;-70
2023/01/23 09:05:19;;;;;;;19.08;10.68;;;;;;;;;;5051988;28;20044;-69
2023/01/23 09:07:45;;;;;;;18.38;10.52;;;;;;;;;;5026559;28;20080;-69
2023/01/23 09:10:11;;;;;;;18.90;11.05;;;;;;;;;;5034532;28;20480;-70
2023/01/23 09:12:37;;;;;;;17.23;10.43;;;;;;;;;;5034073;28;20132;-69
2023/01/23 09:15:03;;;;;;;19.90;10.25;;;;;;;;;;5034172;28;20033;-69
2023/01/23 09:17:29;;;;;;;18.77;11.85;;;;;;;;;;5034334;28;20469;-70
2023/01/23 09:19:54;;;;;;;19.33;10.07;;;;;;;;;;5030579;28;20021;-70
2023/01/23 09:22:20;;;;;;;18.23;11.05;;;;;;;;;;5033803;28;20062;-70
2023/01/23 09:24:45;;;;;;;17.27;9.98;;;;;;;;;;5034156;28;20108;-70
2023/01/23 09:27:11;;;;;;;16.50;9.00;;;;;;;;;;5033662;28;20107;-70
2023/01/23 09:29:36;;;;;;;17.42;9.88;;;;;;;;;;5033473;28;20030;-71
2023/01/23 09:32:02;;;;;;;17.80;10.13;;;;;;;;;;5033806;28;20014;-69
2023/01/23 09:34:28;;;;;;;14.52;9.40;;;;;;;;;;5033814;28;20481;-71
2023/01/23 09:36:54;;;;;;;15.23;8.25;;;;;;;;;;5033805;28;20056;-70
2023/01/23 09:39:20;;;;;;;21.95;11.82;;;;;;;;;;5033835;28;20029;-69
2023/01/23 09:41:47;;;;;;;18.92;9.73;;;;;;;;;;5033553;28;20040;-70
2023/01/23 09:44:33;;;;;;;18.45;9.50;;;;;;;;;;5033708;28;20044;-70
2023/01/23 09:47:06;;;;;;;19.25;12.02;;;;;;;;;;5033495;28;20040;-70
2023/01/23 09:49:56;;;;;;;22.77;11.45;;;;;;;;;;5033259;28;20022;-70
2023/01/23 09:52:26;;;;;;;24.48;12.25;;;;;;;;;;5033517;28;20025;-69
2023/01/23 09:55:01;;;;;;;54.63;16.58;;;;;;;;;;5033524;28;20482;-69
2023/01/23 09:57:40;;;;;;;46.20;14.30;;;;;;;;;;5033563;28;20041;-69
2023/01/23 10:00:19;;;;;;;50.30;16.30;;;;;;;;;;5033364;28;20037;-69
2023/01/23 10:02:45;;;;;;;38.67;15.25;;;;;;;;;;5033340;28;20033;-70
2023/01/23 10:05:19;;;;;;;45.65;15.23;;;;;;;;;;5032882;28;20140;-69
2023/01/23 10:07:57;;;;;;;47.05;15.63;;;;;;;;;;5015447;28;20045;-71
2023/01/23 10:10:37;;;;;;;34.13;12.25;;;;;;;;;;5032965;28;20074;-69
2023/01/23 10:13:21;;;;;;;;;;;;;;;;;;5033462;28;20036;-68
2023/01/23 10:16:05;;;;;;;29.23;10.85;;;;;;;;;;5033130;28;20328;-69
2023/01/23 10:19:01;;;;;;;20.67;9.85;;;;;;;;;;5032914;28;20052;-69
2023/01/23 10:21:58;;;;;;;39.67;14.60;;;;;;;;;;5033315;28;20029;-70
2023/01/23 10:24:49;;;;;;;45.08;15.45;;;;;;;;;;5032767;28;20025;-69
2023/01/23 10:27:34;;;;;;;36.17;14.25;;;;;;;;;;5032657;28;20036;-70
2023/01/23 10:30:17;;;;;;;21.52;10.40;;;;;;;;;;5014486;28;20094;-68
2023/01/23 10:32:51;;;;;;;27.77;10.55;;;;;;;;;;5032837;28;20083;-68
2023/01/23 10:35:41;;;;;;;27.08;9.93;;;;;;;;;;5032763;28;20481;-69
2023/01/23 10:38:24;;;;;;;20.45;9.95;;;;;;;;;;5032631;28;20030;-68
2023/01/23 10:43:34;;;;;;;19.13;9.00;;;;;;;;;;5033018;28;20061;-68
2023/01/23 10:46:07;;;;;;;20.27;8.77;;;;;;;;;;5032514;28;20033;-69
2023/01/23 10:48:32;;;;;;;24.10;9.10;;;;;;;;;;5032628;28;20498;-71
2023/01/23 10:50:59;;;;;;;16.02;8.82;;;;;;;;;;5032488;28;20115;-70
2023/01/23 10:53:25;;;;;;;16.92;9.00;;;;;;;;;;5032488;28;20032;-70
2023/01/23 10:55:54;;;;;;;19.98;9.00;;;;;;;;;;5032404;28;20108;-71
2023/01/23 10:58:39;;;;;;;18.85;8.93;;;;;;;;;;5032403;28;20041;-70
2023/01/23 11:01:21;;;;;;;18.20;9.20;;;;;;;;;;5032429;28;20030;-70
2023/01/23 11:03:47;;;;;;;21.88;10.38;;;;;;;;;;5030980;28;20125;-70
2023/01/23 11:06:19;;;;;;;24.00;10.43;;;;;;;;;;5031682;28;20089;-70
2023/01/23 11:09:00;;;;;;;15.10;8.95;;;;;;;;;;5031407;28;20029;-70
2023/01/23 11:11:28;;;;;;;24.13;10.95;;;;;;;;;;5032542;28;20466;-70
2023/01/23 11:14:07;;;;;;;23.95;10.50;;;;;;;;;;5032576;28;20029;-70
2023/01/23 11:16:34;;;;;;;69.40;19.50;;;;;;;;;;5036342;28;20051;-71
2023/01/23 11:19:08;;;;;;;24.60;10.18;;;;;;;;;;5032268;28;20029;-71
2023/01/23 11:21:36;;;;;;;15.70;8.02;;;;;;;;;;5032029;28;20029;-71
2023/01/23 11:24:33;;;;;;;14.55;8.00;;;;;;;;;;5032410;28;20037;-71
2023/01/23 11:27:01;;;;;;;19.55;9.77;;;;;;;;;;5031934;28;20108;-70
2023/01/23 11:29:29;;;;;;;18.02;8.95;;;;;;;;;;5032303;28;20025;-69
2023/01/23 11:32:05;;;;;;;17.58;8.48;;;;;;;;;;5032280;28;20034;-69
2023/01/23 11:34:46;;;;;;;19.73;9.32;;;;;;;;;;5032289;28;20061;-71
2023/01/23 11:37:21;;;;;;;18.10;8.77;;;;;;;;;;5031948;28;20025;-70
2023/01/23 11:39:53;;;;;;;16.40;8.35;;;;;;;;;;5032258;28;20025;-68
2023/01/23 11:42:19;;;;;;;23.00;9.73;;;;;;;;;;5032080;28;20032;-68
2023/01/23 11:44:45;;;;;;;14.13;8.27;;;;;;;;;;5032066;28;20100;-70
2023/01/23 11:47:20;;;;;;;13.60;7.43;;;;;;;;;;5030548;28;20026;-68
2023/01/23 11:49:48;;;;;;;16.83;8.95;;;;;;;;;;5032139;28;20029;-69
2023/01/23 11:52:29;;;;;;;16.33;8.18;;;;;;;;;;5031890;28;20018;-70
2023/01/23 11:55:19;;;;;;;15.27;7.28;;;;;;;;;;5035744;28;20025;-70
2023/01/23 11:57:53;;;;;;;15.80;7.88;;;;;;;;;;5035737;28;20028;-70
2023/01/23 12:00:21;;;;;;;12.02;6.90;;;;;;;;;;5034444;28;20025;-68
2023/01/23 12:03:03;;;;;;;15.82;8.98;;;;;;;;;;5035498;28;20044;-69
2023/01/23 12:05:40;;;;;;;15.35;8.43;;;;;;;;;;5035105;28;20047;-71
2023/01/23 12:08:22;;;;;;;14.63;8.02;;;;;;;;;;5035407;28;20029;-68
2023/01/23 12:11:16;;;;;;;14.82;7.68;;;;;;;;;;5035496;28;20018;-69
2023/01/23 12:14:01;;;;;;;13.25;7.43;;;;;;;;;;5035248;28;20167;-68
2023/01/23 12:16:50;;;;;;;16.95;7.85;;;;;;;;;;5035519;28;20108;-70
2023/01/23 12:19:21;;;;;;;15.52;8.60;;;;;;;;;;5017211;28;20033;-69
2023/01/23 12:21:55;;;;;;;16.20;8.75;;;;;;;;;;5035210;28;20038;-68
2023/01/23 12:24:46;;;;;;;18.83;8.15;;;;;;;;;;5035076;28;20470;-68
2023/01/23 12:27:21;;;;;;;23.33;8.15;;;;;;;;;;5035172;28;20041;-69
2023/01/23 12:30:19;;;;;;;20.35;7.93;;;;;;;;;;5035174;28;20473;-67
2023/01/23 12:33:02;;;;;;;13.10;7.10;;;;;;;;;;4919623;29;20095;-68
2023/01/23 12:35:38;;;;;;;13.85;7.32;;;;;;;;;;4935357;29;20075;-69
2023/01/23 12:38:39;;;;;;;15.23;7.75;;;;;;;;;;4935766;29;20031;-68
2023/01/23 12:41:39;;;;;;;14.55;8.35;;;;;;;;;;4934984;29;20063;-69
2023/01/23 12:44:17;;;;;;;14.23;8.05;;;;;;;;;;4935553;29;20065;-68
2023/01/23 12:46:45;;;;;;;14.35;7.85;;;;;;;;;;4935454;29;20043;-68
2023/01/23 12:49:13;;;;;;;13.75;8.15;;;;;;;;;;4935020;29;20048;-69
2023/01/23 12:51:42;;;;;;;18.58;9.27;;;;;;;;;;4935264;29;20036;-68
2023/01/23 12:54:16;;;;;;;14.07;8.77;;;;;;;;;;4935381;29;20024;-68
2023/01/23 12:56:43;;;;;;;15.20;9.02;;;;;;;;;;4935325;29;20087;-69
2023/01/23 12:59:26;;;;;;;16.50;8.85;;;;;;;;;;4935085;29;20473;-69
2023/01/23 13:02:02;;;;;;;15.45;9.95;;;;;;;;;;4934861;29;20106;-69
2023/01/23 13:04:49;;;;;;;15.57;8.55;;;;;;;;;;4933918;29;20529;-69
2023/01/23 13:07:31;;;;;;;16.10;9.27;;;;;;;;;;4938117;28;20050;-69
2023/01/23 13:10:14;;;;;;;19.73;10.90;;;;;;;;;;4994852;28;20030;-68
2023/01/23 13:12:40;;;;;;;17.63;9.98;;;;;;;;;;4995144;28;20390;-68
2023/01/23 13:15:23;;;;;;;15.82;8.85;;;;;;;;;;4994936;28;20026;-68
2023/01/23 13:17:50;;;;;;;14.10;8.00;;;;;;;;;;4994745;28;20030;-68
2023/01/23 13:23:32;;;;;;;12.02;7.15;;;;;;;;;;4994569;28;20129;-68
2023/01/23 13:26:16;;;;;;;14.95;7.82;;;;;;;;;;4994631;28;20030;-69
2023/01/23 13:28:47;;;;;;;18.50;9.57;;;;;;;;;;4994689;28;20541;-70
2023/01/23 13:31:32;;;;;;;23.25;11.27;;;;;;;;;;4994502;28;20034;-70
2023/01/23 13:34:00;;;;;;;30.10;14.95;;;;;;;;;;4994386;28;20046;-70
2023/01/23 13:36:29;;;;;;;17.77;10.27;;;;;;;;;;4994559;28;20022;-70
2023/01/23 13:39:21;;;;;;;15.48;8.27;;;;;;;;;;4994462;28;20076;-70
2023/01/23 13:42:05;;;;;;;14.77;8.20;;;;;;;;;;4994506;28;20414;-70
2023/01/23 13:44:39;;;;;;;19.48;9.93;;;;;;;;;;4994346;28;20455;-70
2023/01/23 13:49:49;;;;;;;17.65;9.52;;;;;;;;;;4993964;28;20034;-70
2023/01/23 13:50:04;;;;;;;18.90;9.35;;;;;;;;;;4994157;28;20107;-70
2023/01/23 13:58:20;;;;;;;11.98;7.75;;;;;;;;;;4972783;28;20045;-69
2023/01/23 14:06:37;;;;;;;22.17;11.85;;;;;;;;;;4972336;28;20104;-70
2023/01/23 14:09:03;;;;;;;27.08;12.93;;;;;;;;;;4972170;28;20026;-69
2023/01/23 14:11:36;;;;;;;24.23;12.13;;;;;;;;;;4972211;28;20027;-69
2023/01/23 14:16:48;;;;;;;18.38;11.13;;;;;;;;;;4972073;28;20107;-70
2023/01/23 14:19:24;;;;;;;19.38;10.20;;;;;;;;;;4972046;28;20034;-70
2023/01/23 14:21:58;;;;;;;21.58;10.73;;;;;;;;;;4972210;28;20038;-69
2023/01/23 14:24:41;;;;;;;20.30;9.57;;;;;;;;;;4972157;28;20540;-68
2023/01/23 14:27:08;;;;;;;18.75;9.63;;;;;;;;;;4971704;28;20055;-68
2023/01/23 14:29:34;;;;;;;18.63;9.70;;;;;;;;;;4971729;28;20502;-69
2023/01/23 14:32:00;;;;;;;18.98;9.63;;;;;;;;;;4982518;28;20060;-68
2023/01/23 14:34:26;;;;;;;18.83;9.32;;;;;;;;;;5013029;28;20030;-69
2023/01/23 14:37:04;;;;;;;19.60;9.55;;;;;;;;;;5013203;28;20022;-70
2023/01/23 14:39:32;;;;;;;21.90;10.93;;;;;;;;;;5013090;28;20041;-70
2023/01/23 14:41:59;;;;;;;27.13;11.07;;;;;;;;;;5011851;28;20018;-69
2023/01/23 14:44:40;;;;;;;22.15;10.82;;;;;;;;;;5012725;28;20080;-70
2023/01/23 14:47:14;;;;;;;28.20;11.38;;;;;;;;;;5012769;28;20044;-70
2023/01/23 14:49:40;;;;;;;25.00;11.30;;;;;;;;;;5012793;28;20057;-69
2023/01/23 14:52:17;;;;;;;22.60;10.27;;;;;;;;;;5012850;28;20083;-68
2023/01/23 14:54:43;;;;;;;29.67;11.48;;;;;;;;;;5012907;28;20053;-68
2023/01/23 14:57:11;;;;;;;28.52;10.88;;;;;;;;;;5009655;28;20462;-70
2023/01/23 14:59:38;;;;;;;29.42;11.52;;;;;;;;;;5012065;28;20071;-70
2023/01/23 15:02:44;;;;;;;30.23;13.70;;;;;;;;;;5012774;28;20045;-70
2023/01/23 15:05:26;;;;;;;47.88;21.00;;;;;;;;;;4951827;28;20055;-70
2023/01/23 15:07:54;;;;;;;34.83;14.50;;;;;;;;;;4952372;28;20035;-69
2023/01/23 15:10:26;;;;;;;40.00;13.55;;;;;;;;;;4952398;29;20031;-70